Time;durP1;ratioP1;P1;durP2;ratioP2;P2;SDS_P1;SDS_P2;PMS_P1;PMS_P2;Temp;Humidity;BMP_temperature;BMP_pressure;BME280_temperature;BME280_humidity;BME280_pressure;Samples;Min_cycle;Max_cycle;Signal;HPM_P1;HPM_P2
2022/12/28 00:00:20;;;;;;;6.63;2.17;;;;;;;-144.47;80.70;53066.63;4967456;28;20027;-68
2022/12/28 00:02:45;;;;;;;6.53;2.40;;;;;;;-144.47;80.86;53060.66;4988173;28;20030;-68
2022/12/28 00:05:10;;;;;;;8.68;2.42;;;;;;;-144.47;80.75;52997.09;4963250;28;20026;-70
2022/12/28 00:07:36;;;;;;;5.47;2.50;;;;;;;-144.47;80.89;53034.84;4985883;28;20389;-71
2022/12/28 00:10:02;;;;;;;7.88;2.35;;;;;;;-144.47;81.32;53034.84;4988675;28;20064;-71
2022/12/28 00:12:28;;;;;;;9.77;2.63;;;;;;;-144.47;81.17;53020.94;4987621;28;20023;-69
2022/12/28 00:14:53;;;;;;;9.77;2.72;;;;;;;-144.47;81.42;53018.97;4965009;28;20132;-71
2022/12/28 00:17:19;;;;;;;7.32;2.25;;;;;;;-144.47;81.38;53036.84;4981251;28;20024;-71
2022/12/28 00:19:44;;;;;;;4.93;2.35;;;;;;;-144.47;81.42;53044.78;4970545;28;20268;-70
2022/12/28 00:22:10;;;;;;;7.60;2.20;;;;;;;-144.47;81.53;53040.81;4983911;28;20042;-71
2022/12/28 00:24:35;;;;;;;8.75;2.10;;;;;;;-144.47;81.93;53009.03;4984930;28;20037;-70
2022/12/28 00:27:00;;;;;;;6.43;2.10;;;;;;;-144.47;81.95;53044.78;4985211;28;20092;-69
2022/12/28 00:29:26;;;;;;;13.57;2.72;;;;;;;-144.47;81.90;53048.75;4987554;28;20052;-65
2022/12/28 00:31:51;;;;;;;4.65;1.90;;;;;;;-144.47;81.62;53032.88;4988204;28;20045;-71
2022/12/28 00:34:17;;;;;;;5.25;1.90;;;;;;;-144.47;80.99;53013.00;4973643;28;20392;-67
2022/12/28 00:36:42;;;;;;;7.78;2.38;;;;;;;-144.47;81.27;53024.91;4976254;28;20034;-70
2022/12/28 00:39:08;;;;;;;7.68;2.08;;;;;;;-144.47;81.40;53032.88;4984787;28;20030;-72
2022/12/28 00:41:33;;;;;;;6.32;2.30;;;;;;;-144.47;81.40;53046.75;4960487;28;20022;-71
2022/12/28 00:43:58;;;;;;;4.47;1.70;;;;;;;-144.47;81.65;53022.94;4981177;28;20022;-67
2022/12/28 00:46:24;;;;;;;3.28;1.50;;;;;;;-144.47;81.80;53030.88;4952613;28;20030;-71
2022/12/28 00:48:49;;;;;;;5.13;1.73;;;;;;;-144.47;81.90;53028.88;4986372;28;20026;-67
2022/12/28 00:51:17;;;;;;;7.30;1.85;;;;;;;-144.47;81.80;53044.78;4987335;28;20023;-66
2022/12/28 00:53:43;;;;;;;6.57;1.90;;;;;;;-144.47;81.87;53034.84;4970624;28;20022;-68
2022/12/28 00:56:17;;;;;;;7.97;2.10;;;;;;;-144.47;81.90;53036.84;4988128;28;20018;-71
2022/12/28 00:58:43;;;;;;;8.93;2.20;;;;;;;-144.47;82.13;52995.13;4986729;28;20083;-69
2022/12/28 01:01:18;;;;;;;4.43;1.70;;;;;;;-144.47;82.10;53044.78;4982478;28;20022;-67
2022/12/28 01:03:44;;;;;;;7.85;1.98;;;;;;;-144.47;82.25;53044.78;4978142;28;20109;-70
2022/12/28 01:06:12;;;;;;;5.03;1.55;;;;;;;-144.47;82.54;53026.91;4971353;28;20018;-67
2022/12/28 01:08:39;;;;;;;7.65;1.98;;;;;;;-144.47;82.47;53042.78;4986714;28;20465;-67
2022/12/28 01:11:31;;;;;;;6.32;1.88;;;;;;;-144.47;82.91;53058.69;4969952;28;20026;-71
2022/12/28 01:13:59;;;;;;;6.45;1.90;;;;;;;-144.47;83.08;53054.72;4966090;28;20075;-70
2022/12/28 01:16:26;;;;;;;7.47;1.67;;;;;;;-144.47;83.53;53058.69;4953516;28;20080;-68
2022/12/28 01:18:54;;;;;;;5.95;1.92;;;;;;;-144.47;83.94;53062.66;4986975;28;20044;-67
2022/12/28 01:21:21;;;;;;;9.60;2.60;;;;;;;-144.47;84.29;53048.75;4988218;28;20093;-70
2022/12/28 01:23:47;;;;;;;3.55;1.55;;;;;;;-144.47;84.45;53030.88;4974668;28;20050;-70
2022/12/28 01:26:14;;;;;;;2.92;1.70;;;;;;;-144.47;84.83;53050.75;4983721;28;20057;-68
2022/12/28 01:28:40;;;;;;;10.38;1.80;;;;;;;-144.47;84.51;53066.63;4986550;28;20038;-72
2022/12/28 01:31:08;;;;;;;8.45;1.60;;;;;;;-144.47;84.59;53052.72;4991764;28;20057;-69
2022/12/28 01:33:34;;;;;;;4.43;1.75;;;;;;;-144.47;84.72;53042.78;4991086;28;20030;-72
2022/12/28 01:36:11;;;;;;;7.35;2.10;;;;;;;-144.47;84.92;53058.69;4991403;28;20238;-71
2022/12/28 01:38:37;;;;;;;7.18;2.13;;;;;;;-144.47;85.06;53068.63;4975462;28;20181;-68
2022/12/28 01:41:06;;;;;;;3.97;1.63;;;;;;;-144.47;85.09;53048.75;4991614;28;20486;-70
2022/12/28 01:43:54;;;;;;;7.85;1.85;;;;;;;-144.47;85.13;53070.59;4990262;28;20392;-70
2022/12/28 01:46:21;;;;;;;6.30;2.40;;;;;;;-144.47;84.99;53076.56;4946109;28;20053;-67
2022/12/28 01:48:59;;;;;;;9.00;2.05;;;;;;;-144.47;85.05;53060.66;4990648;28;20064;-67
2022/12/28 01:51:28;;;;;;;9.88;2.10;;;;;;;-144.47;84.81;53048.75;4977194;28;20108;-72
2022/12/28 01:53:58;;;;;;;6.47;2.35;;;;;;;-144.47;84.97;53034.84;4991098;28;20030;-70
2022/12/28 01:56:24;;;;;;;6.57;2.30;;;;;;;-144.47;84.86;53058.69;4990868;28;20018;-69
2022/12/28 01:58:49;;;;;;;11.20;2.25;;;;;;;-144.47;85.00;53052.72;4989390;28;20022;-68
2022/12/28 02:01:16;;;;;;;5.30;2.00;;;;;;;-144.47;85.15;53052.72;4986818;28;20050;-72
2022/12/28 02:03:42;;;;;;;5.80;2.10;;;;;;;-144.47;85.33;53052.72;4979760;28;20015;-72
2022/12/28 02:06:11;;;;;;;5.47;1.85;;;;;;;-144.47;85.43;53036.84;4989708;28;20076;-71
2022/12/28 02:09:02;;;;;;;2.83;1.48;;;;;;;-144.47;85.35;53034.84;4973696;28;20065;-71
2022/12/28 02:11:28;;;;;;;2.97;1.67;;;;;;;-144.47;85.66;53060.66;4991268;28;20200;-71
2022/12/28 02:13:55;;;;;;;11.52;2.17;;;;;;;-144.47;85.66;53044.78;4985525;28;20057;-67
2022/12/28 02:16:20;;;;;;;2.38;1.40;;;;;;;-144.47;85.63;53078.53;4989608;28;20080;-70
2022/12/28 02:18:47;;;;;;;5.30;1.75;;;;;;;-144.47;85.92;53044.78;4974518;28;20067;-68
2022/12/28 02:21:35;;;;;;;6.47;2.28;;;;;;;-144.47;86.06;53064.66;4990957;28;20030;-70
2022/12/28 02:24:19;;;;;;;8.15;1.90;;;;;;;-144.47;86.27;53060.66;4978941;28;20022;-70
2022/12/28 02:26:47;;;;;;;11.80;2.05;;;;;;;-144.47;86.59;53052.72;4987119;28;20105;-71
2022/12/28 02:29:34;;;;;;;6.20;2.00;;;;;;;-144.47;86.46;53064.66;4990119;28;20045;-67
2022/12/28 02:32:05;;;;;;;8.00;2.15;;;;;;;-144.47;86.53;53064.66;4990863;28;20029;-70
2022/12/28 02:35:04;;;;;;;11.10;2.67;;;;;;;-144.47;86.62;53050.75;4989192;28;20022;-70
2022/12/28 02:37:37;;;;;;;;;;;;;;;-144.47;86.63;53060.66;4989591;28;20029;-69
2022/12/28 02:40:08;;;;;;;5.80;1.67;;;;;;;-144.47;86.41;53048.75;4990107;28;19909;-71
2022/12/28 02:42:36;;;;;;;11.70;1.73;;;;;;;-144.47;86.11;53074.56;4989416;28;20026;-72
2022/12/28 02:50:47;;;;;;;3.95;1.48;;;;;;;-144.47;85.48;53050.75;4989785;28;20092;-69
2022/12/28 02:53:44;;;;;;;7.25;1.65;;;;;;;-144.47;85.50;53054.72;4989648;28;20030;-70
2022/12/28 02:56:40;;;;;;;6.47;2.00;;;;;;;-144.47;85.13;53062.66;4969337;28;20084;-68
2022/12/28 02:59:37;;;;;;;4.53;1.98;;;;;;;-144.47;84.91;53052.72;4971464;28;20041;-70
2022/12/28 03:02:23;;;;;;;4.68;1.48;;;;;;;-144.47;85.06;53074.56;4970065;28;20030;-71
2022/12/28 03:04:58;;;;;;;6.18;1.67;;;;;;;-144.47;84.74;53058.69;4965216;28;20057;-71
2022/12/28 03:10:40;;;;;;;4.25;1.90;;;;;;;-144.47;85.01;53032.88;4990141;28;20029;-70
2022/12/28 03:16:05;;;;;;;6.50;1.85;;;;;;;-144.47;85.38;53050.75;4976696;28;20116;-73
2022/12/28 03:32:25;;;;;;;10.15;1.70;;;;;;;-144.47;84.67;53054.72;4989631;28;20088;-71
2022/12/28 03:34:51;;;;;;;7.75;2.05;;;;;;;-144.47;84.60;53036.84;4988619;28;20018;-68
2022/12/28 03:37:37;;;;;;;8.40;2.28;;;;;;;-144.47;84.68;53046.75;4988796;28;20018;-71
2022/12/28 03:40:17;;;;;;;10.02;1.80;;;;;;;-144.47;84.41;53038.81;4988659;28;20338;-70
2022/12/28 03:45:41;;;;;;;6.35;2.20;;;;;;;-144.47;84.01;53046.75;4989346;28;20185;-72
2022/12/28 03:48:07;;;;;;;6.07;1.85;;;;;;;-144.47;84.06;53030.88;4987119;28;20049;-69
2022/12/28 03:50:39;;;;;;;7.43;1.73;;;;;;;-144.47;83.85;53028.88;4988725;28;20033;-70
2022/12/28 03:53:05;;;;;;;9.55;2.13;;;;;;;-144.47;83.51;53032.88;4985886;28;20531;-71
2022/12/28 03:55:30;;;;;;;7.35;2.58;;;;;;;-144.47;83.37;53058.69;4988388;28;20030;-69
2022/12/28 03:57:56;;;;;;;6.88;1.80;;;;;;;-144.47;83.09;53042.78;5001312;22;20018;-68
2022/12/28 04:00:21;;;;;;;9.85;2.63;;;;;;;-144.47;83.04;52993.13;4988519;28;20345;-69
2022/12/28 04:02:47;;;;;;;10.35;2.58;;;;;;;-144.47;83.09;53028.88;4983306;28;20030;-66
2022/12/28 04:05:12;;;;;;;3.85;1.60;;;;;;;-144.47;82.87;53044.78;4989444;28;20030;-68
2022/12/28 04:07:38;;;;;;;5.55;1.95;;;;;;;-144.47;82.79;53048.75;5009300;28;20034;-68
2022/12/28 04:10:03;;;;;;;20.85;2.97;;;;;;;-144.47;82.87;53026.91;4990676;28;20099;-66
2022/12/28 04:12:29;;;;;;;13.40;2.30;;;;;;;-144.47;82.65;53044.78;4989113;28;20077;-70
2022/12/28 04:14:54;;;;;;;4.40;1.88;;;;;;;-144.47;82.79;53044.78;4989255;28;20109;-68
2022/12/28 04:17:19;;;;;;;9.30;1.95;;;;;;;-144.47;82.62;53036.84;4968561;28;20025;-69
2022/12/28 04:19:45;;;;;;;7.05;2.17;;;;;;;-144.47;82.77;53054.72;4984114;28;20022;-68
2022/12/28 04:22:10;;;;;;;8.02;2.10;;;;;;;-144.47;82.37;52989.16;4990299;28;20460;-69
2022/12/28 04:24:36;;;;;;;7.45;2.03;;;;;;;-144.47;82.41;53024.91;4990286;28;20026;-66
2022/12/28 04:27:01;;;;;;;5.53;1.95;;;;;;;-144.47;82.36;53038.81;4989064;28;20048;-68
2022/12/28 04:29:26;;;;;;;7.70;1.90;;;;;;;-144.47;82.41;53040.81;4988953;28;20635;-69
2022/12/28 04:31:52;;;;;;;5.85;2.10;;;;;;;-144.47;82.32;53044.78;4956373;28;20514;-69
2022/12/28 04:34:17;;;;;;;10.27;2.08;;;;;;;-144.47;81.85;53024.91;4990013;28;20033;-66
2022/12/28 04:36:42;;;;;;;4.80;1.70;;;;;;;-144.47;81.53;53042.78;4989574;28;20021;-68
2022/12/28 04:39:08;;;;;;;5.15;2.08;;;;;;;-144.47;81.10;53026.91;4989855;28;20460;-69
2022/12/28 04:41:33;;;;;;;4.13;1.40;;;;;;;-144.47;80.83;53018.97;4989644;28;20023;-69
2022/12/28 04:43:59;;;;;;;7.45;2.00;;;;;;;-144.47;80.54;53024.91;4989315;28;20049;-67
2022/12/28 04:46:24;;;;;;;3.83;1.63;;;;;;;-144.47;80.05;53020.94;4990430;28;20101;-67
2022/12/28 04:48:50;;;;;;;6.38;1.73;;;;;;;-144.47;79.76;52991.16;4991631;28;20026;-68
2022/12/28 04:51:19;;;;;;;9.23;1.90;;;;;;;-144.47;79.49;53048.75;4991189;28;20092;-67
2022/12/28 04:53:45;;;;;;;11.35;1.90;;;;;;;-144.47;79.39;53011.00;4990993;28;20026;-65
2022/12/28 04:56:12;;;;;;;7.43;1.88;;;;;;;-144.47;79.39;53018.97;4977974;28;20034;-69
2022/12/28 04:58:38;;;;;;;3.55;1.60;;;;;;;-144.47;78.97;53038.81;4988692;28;20029;-66
2022/12/28 05:01:09;;;;;;;7.05;1.92;;;;;;;-144.47;79.14;53042.78;4990220;28;20085;-68
2022/12/28 05:03:36;;;;;;;5.82;1.58;;;;;;;-144.47;78.88;53015.00;4985189;28;20019;-67
2022/12/28 05:06:03;;;;;;;5.07;1.77;;;;;;;-144.47;78.94;53054.72;4994464;28;20022;-67
2022/12/28 05:08:36;;;;;;;11.00;2.00;;;;;;;-144.47;79.05;53007.03;4993384;28;20026;-67
2022/12/28 05:11:05;;;;;;;8.10;1.80;;;;;;;-144.47;79.23;53036.84;4977117;28;20026;-69
2022/12/28 05:13:31;;;;;;;9.10;1.75;;;;;;;-144.47;79.29;53034.84;4993480;28;20057;-68
2022/12/28 05:16:05;;;;;;;4.70;1.80;;;;;;;-144.47;79.38;53007.03;4984240;28;20037;-68
2022/12/28 05:18:31;;;;;;;5.45;2.17;;;;;;;-144.47;79.24;53003.06;4989574;28;20391;-68
2022/12/28 05:20:59;;;;;;;8.05;1.85;;;;;;;-144.47;79.52;53005.06;4994100;28;20476;-69
2022/12/28 05:23:25;;;;;;;4.93;1.58;;;;;;;-144.47;79.06;53020.94;4975694;28;20030;-67
2022/12/28 05:25:53;;;;;;;11.05;1.75;;;;;;;-144.47;79.04;53018.97;4993655;28;20030;-65
2022/12/28 05:28:19;;;;;;;5.93;1.50;;;;;;;-144.47;78.69;53048.75;4990771;28;20364;-65
2022/12/28 05:30:44;;;;;;;5.85;2.00;;;;;;;-144.47;78.49;53015.00;4975573;28;20102;-68
2022/12/28 05:33:09;;;;;;;8.98;1.80;;;;;;;-144.47;78.42;53007.03;4989612;28;20639;-68
2022/12/28 05:35:35;;;;;;;5.93;1.90;;;;;;;-144.47;78.31;53016.97;4980609;28;20422;-68
2022/12/28 05:38:00;;;;;;;9.90;1.73;;;;;;;-144.47;78.09;52999.09;4990061;28;20122;-65
2022/12/28 05:40:25;;;;;;;5.30;1.52;;;;;;;-144.47;78.09;53022.94;4993319;28;20105;-68
2022/12/28 05:42:51;;;;;;;16.85;2.35;;;;;;;-144.47;77.92;53007.03;4991941;28;20041;-66
2022/12/28 05:45:16;;;;;;;5.90;1.20;;;;;;;-144.47;77.74;53036.84;4990393;28;20054;-67
2022/12/28 05:47:41;;;;;;;2.10;1.20;;;;;;;-144.47;77.76;52997.09;4991921;28;20018;-67
2022/12/28 05:50:07;;;;;;;4.35;1.52;;;;;;;-144.47;77.66;53016.97;4992694;28;20092;-66
2022/12/28 05:52:32;;;;;;;5.85;1.70;;;;;;;-144.47;77.77;53054.72;4992802;28;20026;-67
2022/12/28 05:54:58;;;;;;;3.15;1.20;;;;;;;-144.47;77.66;52975.25;4993062;28;20045;-66
2022/12/28 05:57:23;;;;;;;5.35;1.60;;;;;;;-144.47;77.45;53038.81;4991418;28;20026;-68
2022/12/28 05:59:48;;;;;;;5.78;1.80;;;;;;;-144.47;77.43;53028.88;4992212;28;20612;-68
2022/12/28 06:02:14;;;;;;;5.50;1.50;;;;;;;-144.47;77.62;53005.06;4985073;28;20072;-68
2022/12/28 06:04:39;;;;;;;7.35;1.80;;;;;;;-144.47;77.65;53024.91;4992862;28;20015;-66
2022/12/28 06:07:04;;;;;;;11.23;1.65;;;;;;;-144.47;77.57;53018.97;4991670;28;20124;-68
2022/12/28 06:09:29;;;;;;;4.20;1.55;;;;;;;-144.47;77.58;52999.09;4992191;28;20070;-68
2022/12/28 06:11:55;;;;;;;6.28;1.73;;;;;;;-144.47;77.69;52997.09;4992435;28;20054;-68
2022/12/28 06:14:20;;;;;;;3.42;1.65;;;;;;;-144.47;77.40;52995.13;4987852;28;20018;-68
2022/12/28 06:16:45;;;;;;;4.57;1.45;;;;;;;-144.47;77.47;53022.94;4988826;28;20096;-65
2022/12/28 06:19:13;;;;;;;4.45;1.60;;;;;;;-144.47;77.23;53015.00;4992799;28;20056;-68
2022/12/28 06:21:40;;;;;;;5.68;1.98;;;;;;;-144.47;77.20;52995.13;4992655;28;20030;-66
2022/12/28 06:24:06;;;;;;;7.05;1.25;;;;;;;-144.47;77.35;52981.22;4993598;28;20026;-69
2022/12/28 06:26:33;;;;;;;6.63;1.70;;;;;;;-144.47;77.51;53016.97;4991687;28;20047;-67
2022/12/28 06:29:00;;;;;;;3.17;1.58;;;;;;;-144.47;77.59;53003.06;4973914;28;20037;-65
2022/12/28 06:31:29;;;;;;;3.63;1.30;;;;;;;-144.47;77.39;53009.03;4992358;28;20101;-68
2022/12/28 06:33:58;;;;;;;9.38;1.30;;;;;;;-144.47;77.42;52999.09;4990843;28;20221;-69
2022/12/28 06:36:30;;;;;;;4.10;1.50;;;;;;;-144.47;77.27;53013.00;4983371;28;20027;-70
2022/12/28 06:38:57;;;;;;;6.35;1.55;;;;;;;-144.47;77.43;52991.16;4980776;28;20093;-68
2022/12/28 06:41:24;;;;;;;10.85;1.77;;;;;;;-144.47;77.03;53003.06;4992429;28;20031;-69
2022/12/28 06:43:49;;;;;;;4.45;1.80;;;;;;;-144.47;77.08;52965.34;4991605;28;20031;-69
2022/12/28 06:46:17;;;;;;;7.05;1.83;;;;;;;-144.47;77.12;52999.09;4991623;28;20010;-70
2022/12/28 06:48:43;;;;;;;3.53;1.40;;;;;;;-144.47;77.04;53003.06;4991849;28;20053;-67
2022/12/28 06:51:19;;;;;;;7.38;1.63;;;;;;;-144.47;77.03;53018.97;4992287;28;20026;-66
2022/12/28 06:53:45;;;;;;;5.60;1.90;;;;;;;-144.47;77.16;52991.16;4982605;28;20023;-68
2022/12/28 06:56:17;;;;;;;3.42;1.55;;;;;;;-144.47;77.27;52987.19;4992075;28;20427;-67
2022/12/28 06:58:44;;;;;;;7.60;1.60;;;;;;;-144.47;77.40;53013.00;4990571;28;20037;-66
2022/12/28 07:01:16;;;;;;;6.18;1.60;;;;;;;-144.47;77.51;53005.06;4989749;28;20078;-69
2022/12/28 07:03:42;;;;;;;3.00;1.40;;;;;;;-144.47;77.85;52991.16;4981181;28;20025;-67
2022/12/28 07:06:08;;;;;;;6.15;1.77;;;;;;;-144.47;77.85;52991.16;4990515;28;20019;-68
2022/12/28 07:08:34;;;;;;;2.88;1.48;;;;;;;-144.47;77.75;53022.94;4990645;28;20483;-68
2022/12/28 07:11:04;;;;;;;4.95;1.60;;;;;;;-144.47;77.81;53003.06;4992001;28;20045;-68
2022/12/28 07:13:29;;;;;;;9.57;1.90;;;;;;;-144.47;77.96;53003.06;4991600;28;20022;-69
2022/12/28 07:15:55;;;;;;;3.28;1.40;;;;;;;-144.47;77.73;52995.13;4990267;28;20419;-69
2022/12/28 07:18:20;;;;;;;6.35;1.95;;;;;;;-144.47;77.44;53015.00;4970106;28;20022;-70
2022/12/28 07:20:45;;;;;;;3.15;1.20;;;;;;;-144.47;77.40;52989.16;4991680;28;20084;-68
2022/12/28 07:23:11;;;;;;;3.15;1.60;;;;;;;-144.47;77.42;52983.22;4992752;28;20072;-68
2022/12/28 07:25:36;;;;;;;7.75;1.58;;;;;;;-144.47;77.45;52975.25;4992294;28;20026;-68
2022/12/28 07:28:02;;;;;;;6.65;1.73;;;;;;;-144.47;77.57;52979.22;4989287;28;20045;-69
2022/12/28 07:30:27;;;;;;;5.72;1.85;;;;;;;-144.47;77.32;52997.09;4989622;28;20480;-69
2022/12/28 07:32:52;;;;;;;4.88;1.67;;;;;;;-144.47;77.35;52981.22;4992240;28;20037;-67
2022/12/28 07:35:18;;;;;;;6.80;2.05;;;;;;;-144.47;77.51;52983.22;4989859;28;20384;-68
2022/12/28 07:37:44;;;;;;;3.50;1.90;;;;;;;-144.47;77.28;52991.16;4989481;28;20023;-65
2022/12/28 07:40:10;;;;;;;6.22;1.77;;;;;;;-144.47;77.10;52979.22;4991732;28;20387;-69
2022/12/28 07:42:35;;;;;;;2.90;1.58;;;;;;;-144.47;77.15;52981.22;4973890;28;20096;-69
2022/12/28 07:45:00;;;;;;;4.18;1.50;;;;;;;-144.47;77.26;52971.28;4990389;28;20560;-67
2022/12/28 07:47:26;;;;;;;3.70;1.30;;;;;;;-144.47;77.36;52995.13;4990530;28;20053;-69
2022/12/28 07:49:51;;;;;;;6.93;2.00;;;;;;;-144.47;77.34;52979.22;4990827;28;20084;-67
2022/12/28 07:52:16;;;;;;;14.63;2.13;;;;;;;-144.47;77.22;52985.19;4991296;28;20483;-69
2022/12/28 07:54:42;;;;;;;4.22;1.55;;;;;;;-144.47;77.15;53003.06;4990931;28;20022;-65
2022/12/28 07:57:07;;;;;;;3.80;1.52;;;;;;;-144.47;77.29;52973.28;4973629;28;20054;-68
2022/12/28 07:59:32;;;;;;;6.00;1.55;;;;;;;-144.47;77.17;52983.22;4989937;28;20527;-70
2022/12/28 08:01:58;;;;;;;4.88;1.75;;;;;;;-144.47;76.99;52961.34;4990292;28;20026;-68
2022/12/28 08:04:24;;;;;;;5.30;1.75;;;;;;;-144.47;77.14;52967.31;4967254;28;20022;-70
2022/12/28 08:06:49;;;;;;;4.95;1.83;;;;;;;-144.47;76.96;53009.03;4990261;28;20022;-67
2022/12/28 08:09:14;;;;;;;6.50;1.90;;;;;;;-144.47;76.90;52985.19;4990555;28;20030;-70
2022/12/28 08:11:42;;;;;;;11.75;2.17;;;;;;;-144.47;76.96;52979.22;4972729;28;20018;-67
2022/12/28 08:14:08;;;;;;;6.30;1.88;;;;;;;-144.47;77.21;53016.97;4988893;28;20101;-68
2022/12/28 08:16:37;;;;;;;7.43;2.10;;;;;;;-144.47;76.74;52979.22;4989945;28;20102;-69
2022/12/28 08:19:03;;;;;;;6.05;1.50;;;;;;;-144.47;76.88;52987.19;4990575;28;20037;-67
2022/12/28 08:21:32;;;;;;;4.15;1.45;;;;;;;-144.47;76.73;52957.38;4992050;28;20100;-69
2022/12/28 08:23:58;;;;;;;8.18;2.22;;;;;;;-144.47;76.55;52985.19;4991670;28;20030;-70
2022/12/28 08:26:27;;;;;;;4.20;1.85;;;;;;;-144.47;76.38;52983.22;4957071;28;20095;-68
2022/12/28 08:28:55;;;;;;;3.65;1.60;;;;;;;-144.47;76.54;52977.25;4989997;28;20226;-66
2022/12/28 08:31:26;;;;;;;3.10;1.55;;;;;;;-144.47;76.35;52975.25;4990616;28;20026;-65
2022/12/28 08:33:53;;;;;;;3.10;1.30;;;;;;;-144.47;76.38;52975.25;4990256;28;20029;-67
2022/12/28 08:36:19;;;;;;;9.10;1.83;;;;;;;-144.47;76.39;52961.34;4973586;28;20049;-70
2022/12/28 08:38:45;;;;;;;6.40;2.30;;;;;;;-144.47;76.23;52963.34;4977402;28;20034;-66
2022/12/28 08:41:14;;;;;;;5.43;1.50;;;;;;;-144.47;75.85;52937.53;4990727;28;20030;-69
2022/12/28 08:43:39;;;;;;;8.32;1.77;;;;;;;-144.47;76.11;52967.31;4985920;28;20193;-70
2022/12/28 08:46:18;;;;;;;4.90;1.60;;;;;;;-144.47;76.33;52963.34;4980412;28;20101;-72
2022/12/28 08:48:45;;;;;;;5.63;1.55;;;;;;;-144.47;76.23;52959.38;4987417;28;20030;-69
2022/12/28 08:51:17;;;;;;;3.67;1.30;;;;;;;-144.47;76.30;52987.19;5000863;28;20026;-70
2022/12/28 08:53:43;;;;;;;14.02;2.35;;;;;;;-144.47;75.99;52961.34;4995572;28;20014;-71
2022/12/28 08:56:13;;;;;;;5.40;1.80;;;;;;;-144.47;75.84;52927.59;4998400;28;20088;-72
2022/12/28 08:58:40;;;;;;;5.20;1.95;;;;;;;-144.47;76.25;52951.44;4991366;28;20076;-71
2022/12/28 09:01:08;;;;;;;7.22;2.13;;;;;;;-144.47;76.11;52957.38;4988599;28;20026;-69
2022/12/28 09:03:35;;;;;;;5.80;1.77;;;;;;;-144.47;75.68;52953.41;4985572;28;20034;-70
2022/12/28 09:06:05;;;;;;;8.60;1.98;;;;;;;-144.47;75.99;52945.47;4990607;28;20022;-71
2022/12/28 09:08:31;;;;;;;2.97;1.60;;;;;;;-144.47;76.14;52965.34;4987163;28;20022;-70
2022/12/28 09:11:05;;;;;;;8.88;2.40;;;;;;;-144.47;77.10;52955.41;4986392;28;20128;-68
2022/12/28 09:13:31;;;;;;;5.82;1.65;;;;;;;-144.47;77.51;52975.25;4988226;28;20119;-70
2022/12/28 09:16:18;;;;;;;9.02;1.80;;;;;;;-144.47;77.62;52981.22;4985677;28;20491;-66
2022/12/28 09:18:44;;;;;;;4.63;1.67;;;;;;;-144.47;77.79;52989.16;4982255;28;20026;-69
2022/12/28 09:21:16;;;;;;;6.38;2.00;;;;;;;-144.47;77.81;52955.41;4990346;28;20014;-67
2022/12/28 09:23:43;;;;;;;7.13;1.73;;;;;;;-144.47;77.77;52973.28;4985620;28;20072;-70
2022/12/28 09:26:18;;;;;;;4.95;1.75;;;;;;;-144.47;77.01;52975.25;4986640;28;20029;-70
2022/12/28 09:28:55;;;;;;;3.92;1.75;;;;;;;-144.47;76.88;52987.19;4963418;28;20550;-67
2022/12/28 09:31:24;;;;;;;4.07;1.35;;;;;;;-144.47;76.30;52975.25;4988704;28;20026;-69
2022/12/28 09:34:01;;;;;;;4.05;1.50;;;;;;;-144.47;76.31;52951.44;4988334;28;20065;-70
2022/12/28 09:36:36;;;;;;;4.78;2.03;;;;;;;-144.47;76.12;52951.44;4981466;28;20023;-67
2022/12/28 09:39:08;;;;;;;4.13;1.60;;;;;;;-144.47;75.72;52913.69;4988907;28;20113;-70
2022/12/28 09:41:39;;;;;;;3.70;1.67;;;;;;;-144.47;75.76;52971.28;4993028;28;20334;-71
2022/12/28 09:44:16;;;;;;;4.50;1.80;;;;;;;-144.47;75.71;52969.31;4992036;28;20080;-69
2022/12/28 09:46:59;;;;;;;3.38;1.42;;;;;;;-144.47;75.36;53003.06;4983188;28;20076;-67
2022/12/28 09:49:37;;;;;;;3.40;1.30;;;;;;;-144.47;75.00;52959.38;4984764;28;20497;-67
2022/12/28 09:52:25;;;;;;;8.50;1.52;;;;;;;-144.47;74.39;52951.44;4988231;28;20034;-67
2022/12/28 09:54:52;;;;;;;6.18;1.92;;;;;;;-144.47;74.81;52963.34;4990422;28;20097;-71
2022/12/28 09:57:19;;;;;;;8.00;1.95;;;;;;;-144.47;74.71;52931.56;4990366;28;20019;-70
2022/12/28 09:59:46;;;;;;;5.88;1.80;;;;;;;-144.47;74.64;52957.38;5004024;23;20039;-68
2022/12/28 10:02:24;;;;;;;4.28;1.70;;;;;;;-144.47;74.07;52961.34;4964691;28;20023;-70
2022/12/28 10:04:50;;;;;;;4.90;1.95;;;;;;;-144.47;73.77;52963.34;4988898;28;20126;-71
2022/12/28 10:07:15;;;;;;;10.20;2.58;;;;;;;-144.47;73.87;52941.50;4985993;28;20015;-71
2022/12/28 10:09:41;;;;;;;3.55;1.77;;;;;;;-144.47;73.69;52915.69;4979365;28;20022;-67
2022/12/28 10:12:15;;;;;;;3.17;1.63;;;;;;;-144.47;73.70;52931.56;4988243;28;20042;-69
2022/12/28 10:14:43;;;;;;;6.13;1.92;;;;;;;-144.47;73.67;52961.34;4982145;28;20057;-69
2022/12/28 10:17:12;;;;;;;4.05;1.92;;;;;;;-144.47;73.47;52945.47;4989071;28;20172;-67
2022/12/28 10:19:37;;;;;;;2.70;1.60;;;;;;;-144.47;73.64;52935.53;4987314;28;20062;-69
2022/12/28 10:22:06;;;;;;;5.97;1.80;;;;;;;-144.47;73.42;52933.56;4980983;28;20022;-68
2022/12/28 10:24:32;;;;;;;3.80;1.73;;;;;;;-144.47;73.45;52915.69;4989656;28;20050;-67
2022/12/28 10:26:59;;;;;;;5.53;2.20;;;;;;;-144.47;73.37;52907.72;4984626;28;20030;-68
2022/12/28 10:29:25;;;;;;;5.55;1.65;;;;;;;-144.47;73.40;52927.59;4983385;28;20019;-69
2022/12/28 10:32:08;;;;;;;3.90;1.95;;;;;;;-144.47;73.39;52947.47;4982865;28;20037;-66
2022/12/28 10:34:35;;;;;;;3.92;1.52;;;;;;;-144.47;73.07;52927.59;4984860;28;20029;-68
2022/12/28 10:37:14;;;;;;;4.70;1.60;;;;;;;-144.47;73.45;52931.56;4982006;28;20021;-70
2022/12/28 10:39:57;;;;;;;5.68;1.75;;;;;;;-144.47;73.47;52923.63;4989677;28;20095;-69
2022/12/28 10:42:35;;;;;;;7.07;1.90;;;;;;;-144.47;73.45;52937.53;4990508;28;20535;-69
2022/12/28 10:45:06;;;;;;;5.72;1.48;;;;;;;-144.47;73.55;52923.63;4954302;28;20345;-68
2022/12/28 10:47:35;;;;;;;2.75;1.67;;;;;;;-144.47;73.28;52935.53;4981366;28;20097;-69
2022/12/28 10:50:03;;;;;;;5.05;1.70;;;;;;;-144.47;73.50;52913.69;4985283;28;20487;-69
2022/12/28 10:52:28;;;;;;;10.57;1.75;;;;;;;-144.47;73.49;52899.78;4984246;28;20023;-69
2022/12/28 10:54:54;;;;;;;4.28;1.88;;;;;;;-144.47;73.12;52925.59;4979769;28;20037;-73
2022/12/28 10:57:28;;;;;;;3.05;1.40;;;;;;;-144.47;73.42;52943.47;4985300;28;20026;-66
2022/12/28 11:00:22;;;;;;;7.80;1.67;;;;;;;-144.47;73.13;52907.72;4988693;28;20030;-68
2022/12/28 11:02:47;;;;;;;4.10;1.75;;;;;;;-144.47;73.26;52939.50;4986363;28;20310;-67
2022/12/28 11:05:23;;;;;;;7.03;1.30;;;;;;;-144.47;73.20;52905.75;4982755;28;20042;-70
2022/12/28 11:08:03;;;;;;;4.05;1.63;;;;;;;-144.47;73.32;52923.63;4980638;28;20018;-68
2022/12/28 11:10:29;;;;;;;5.28;2.03;;;;;;;-144.47;73.14;52875.94;4990293;28;20050;-68
2022/12/28 11:13:00;;;;;;;6.40;1.75;;;;;;;-144.47;73.40;52929.59;4971524;28;20065;-70
2022/12/28 11:15:30;;;;;;;7.75;1.85;;;;;;;-144.47;72.92;52923.63;4989011;28;20087;-69
2022/12/28 11:18:06;;;;;;;4.97;1.67;;;;;;;-144.47;72.70;52933.56;4981079;28;20030;-70
2022/12/28 11:20:35;;;;;;;6.40;1.70;;;;;;;-144.47;72.76;52927.59;4982798;28;20018;-71
2022/12/28 11:23:04;;;;;;;4.32;1.27;;;;;;;-144.47;73.10;52941.50;4988378;28;20022;-66
2022/12/28 11:25:33;;;;;;;3.60;1.40;;;;;;;-144.47;73.08;52899.78;4991734;28;20113;-70
2022/12/28 11:28:00;;;;;;;5.60;1.65;;;;;;;-144.47;73.04;52951.44;4990558;28;20041;-72
2022/12/28 11:30:25;;;;;;;3.17;1.48;;;;;;;-144.47;72.95;52919.66;4970218;28;20022;-71
2022/12/28 11:32:55;;;;;;;4.97;2.03;;;;;;;-144.47;72.79;52937.53;4985307;28;20144;-68
2022/12/28 11:35:29;;;;;;;7.50;1.65;;;;;;;-144.47;72.60;52915.69;4980401;28;20027;-68
2022/12/28 11:38:00;;;;;;;2.97;1.27;;;;;;;-144.47;72.56;52959.38;4981683;28;20109;-71
2022/12/28 11:40:41;;;;;;;5.93;1.60;;;;;;;-144.47;72.43;52915.69;4988797;28;20125;-69
2022/12/28 11:43:29;;;;;;;4.63;1.60;;;;;;;-144.47;72.44;52937.53;4988920;28;20465;-68
2022/12/28 11:45:59;;;;;;;8.27;1.77;;;;;;;-144.47;72.01;52923.63;4988827;28;20037;-72
2022/12/28 11:48:46;;;;;;;6.55;1.80;;;;;;;-144.47;72.11;52933.56;4987489;28;20062;-72
2022/12/28 11:51:23;;;;;;;3.78;1.50;;;;;;;-144.47;72.07;52927.59;4989570;28;20057;-68
2022/12/28 11:53:52;;;;;;;3.60;1.23;;;;;;;-144.47;72.31;52933.56;4988954;28;20121;-71